»·PEaware :: COA1445 KBOI-KSLC

COA1445 :: KBOI-KSLC

FLIGHT INFORMATION

Flight Status: Arrived
Operator:
Continental Air Lines
More flights by this operator :: More flights under this callsign
Pilot: Andrew C. (28419)
Aircraft: BOEING 757-200
(B752)
More flights by this aircraft type
Origin: KBOI Boise Air Terminal/Gowen
United States
Destination: KSLC Salt Lake City Intl
United States
More flights between these airports :: More routes between these airports
Route: +BOI3 ROARR BYI SKEES5
File this flight plan on PilotEdge
Remarks: RMK / SIMBRIEF
Altitude:
(Current/Filed)
39,000ft
Speed:
(Current/Filed)
441kts
Departed: 13-Sep-20 03:19 PM
Arrived: 13-Sep-20 04:11 PM
Distance/Time
Traveled:
252nm/0:52
Distance/Time
To Go:
Arrived

Flight Plot

Page will automatically refresh every two minutes.

Flight plan parsing failed; only flown route is shown


Map Options




Map Legend


Flown Route
Filed Route
Departure Airport
Arrival Airport
Navaid (VOR, NDB)
Fix

Horizontal Profiles

Position Reports

Time Latitude Longitude Heading Altitude Ground
Speed
13-Sep-20 15:07 43.567360 -116.221231 24 2860ft 0kts
13-Sep-20 15:08 43.567360 -116.221231 24 2860ft 0kts
13-Sep-20 15:09 43.567360 -116.221231 24 2860ft 0kts
13-Sep-20 15:10 43.567360 -116.221231 24 2860ft 0kts
13-Sep-20 15:11 43.567286 -116.221277 24 2860ft 2kts
13-Sep-20 15:12 43.566773 -116.221289 288 2861ft 2kts
13-Sep-20 15:13 43.566560 -116.220611 294 2861ft 0kts
13-Sep-20 15:14 43.566560 -116.220611 294 2861ft 0kts
13-Sep-20 15:15 43.566601 -116.221082 250 2861ft 8kts
13-Sep-20 15:16 43.568672 -116.228972 295 2852ft 27kts
13-Sep-20 15:17 43.570956 -116.235945 259 2836ft 0kts
13-Sep-20 15:18 43.569567 -116.235021 114 2844ft 36kts
13-Sep-20 15:19 43.554479 -116.190357 112 4101ft 164kts
13-Sep-20 15:20 43.533197 -116.115856 111 5734ft 247kts
13-Sep-20 15:20 43.510797 -116.037315 116 8619ft 269kts
13-Sep-20 15:22 43.470818 -115.915337 115 11361ft 345kts
13-Sep-20 15:22 43.437256 -115.811983 116 14385ft 365kts
13-Sep-20 15:23 43.394676 -115.681465 116 15971ft 374kts
13-Sep-20 15:24 43.351744 -115.550566 116 15972ft 374kts
13-Sep-20 15:26 43.301091 -115.396918 116 18173ft 388kts
13-Sep-20 15:26 43.254715 -115.288782 125 20639ft 401kts
13-Sep-20 15:27 43.193662 -115.157097 125 23304ft 418kts
13-Sep-20 15:28 43.130171 -115.020807 124 25718ft 433kts
13-Sep-20 15:29 43.064122 -114.879667 124 27900ft 446kts
13-Sep-20 15:30 42.995994 -114.734789 123 29810ft 459kts
13-Sep-20 15:31 42.925776 -114.586202 123 31451ft 473kts
13-Sep-20 15:32 42.853813 -114.434704 123 33267ft 477kts
13-Sep-20 15:33 42.781538 -114.283331 124 35032ft 476kts
13-Sep-20 15:34 42.709263 -114.132729 124 36434ft 477kts
13-Sep-20 15:35 42.636213 -113.981292 124 37513ft 480kts
13-Sep-20 15:36 42.557264 -113.836340 136 38420ft 479kts
13-Sep-20 15:37 42.462855 -113.708474 136 39003ft 481kts
13-Sep-20 15:38 42.369767 -113.584064 136 38990ft 446kts
13-Sep-20 15:39 42.281233 -113.466429 136 39003ft 450kts
13-Sep-20 15:40 42.190283 -113.346082 137 38272ft 450kts
13-Sep-20 15:41 42.103168 -113.231306 136 33205ft 439kts
13-Sep-20 15:42 42.017214 -113.118455 136 27481ft 426kts
13-Sep-20 15:43 41.934649 -113.010523 135 25677ft 407kts
13-Sep-20 15:44 41.854324 -112.905887 135 23934ft 397kts
13-Sep-20 15:45 41.777436 -112.806112 135 22276ft 388kts
13-Sep-20 15:46 41.700998 -112.707261 135 20635ft 377kts
13-Sep-20 15:47 41.626406 -112.611129 135 19028ft 368kts
13-Sep-20 15:48 41.553118 -112.516993 135 17453ft 360kts
13-Sep-20 15:49 41.474074 -112.437766 150 16770ft 358kts
13-Sep-20 15:50 41.386720 -112.375677 151 16826ft 356kts
13-Sep-20 15:51 41.299065 -112.313691 152 16826ft 356kts
13-Sep-20 15:52 41.211574 -112.250859 150 14877ft 344kts
13-Sep-20 15:53 41.129442 -112.188037 150 12994ft 334kts
13-Sep-20 15:54 41.045522 -112.140833 171 12666ft 331kts
13-Sep-20 15:55 40.957508 -112.121642 171 11668ft 323kts
13-Sep-20 15:56 40.869361 -112.105683 175 10828ft 319kts
13-Sep-20 15:57 40.782689 -112.095646 175 10810ft 294kts
13-Sep-20 15:58 40.705290 -112.086796 175 9937ft 280kts
13-Sep-20 15:59 40.630719 -112.078293 175 8868ft 268kts
13-Sep-20 16:00 40.561342 -112.070319 175 7996ft 236kts
13-Sep-20 16:01 40.496362 -112.062319 166 7825ft 236kts
13-Sep-20 16:02 40.473636 -111.990372 72 7828ft 236kts
13-Sep-20 16:03 40.525640 -111.967106 354 7810ft 194kts
13-Sep-20 16:04 40.578010 -111.972804 355 7826ft 187kts
13-Sep-20 16:05 40.630894 -111.978825 354 7097ft 190kts
13-Sep-20 16:06 40.683244 -111.984862 354 6107ft 172kts
13-Sep-20 16:07 40.724547 -111.989472 350 5284ft 139kts
13-Sep-20 16:08 40.761218 -111.993977 355 4509ft 122kts
13-Sep-20 16:09 40.791521 -111.997405 355 4239ft 54kts
13-Sep-20 16:10 40.792759 -111.995333 172 4239ft 25kts
13-Sep-20 16:11 40.791400 -111.987971 86 4239ft 28kts
13-Sep-20 16:12 40.789660 -111.979881 187 4239ft 26kts
13-Sep-20 16:13 40.786781 -111.979866 162 4239ft 2kts

Navigation Log

Ident Type
Flight plan parsing failed, navigation log unavailable